createdAt,value
2019-05-05T00:01:21.238Z,3.90
2019-05-05T00:03:47.295Z,3.23
2019-05-05T00:06:14.695Z,4.37
2019-05-05T00:08:40.877Z,3.50
2019-05-05T00:11:07.206Z,3.90
2019-05-05T00:13:34.660Z,3.50
2019-05-05T00:16:00.787Z,3.23
2019-05-05T00:18:27.138Z,3.30
2019-05-05T00:20:55.175Z,3.37
2019-05-05T00:23:21.415Z,3.60
2019-05-05T00:25:47.439Z,3.17
2019-05-05T00:28:14.331Z,3.90
2019-05-05T00:30:40.625Z,3.93
2019-05-05T00:33:06.619Z,3.30
2019-05-05T00:35:34.470Z,3.30
2019-05-05T00:38:00.677Z,3.40
2019-05-05T00:40:26.746Z,3.43
2019-05-05T00:42:54.606Z,2.87
2019-05-05T00:45:20.942Z,3.40
2019-05-05T00:47:46.964Z,3.30
2019-05-05T00:50:14.588Z,3.10
2019-05-05T00:52:40.623Z,3.47
2019-05-05T00:55:07.412Z,4.20
2019-05-05T00:57:34.779Z,4.13
2019-05-05T01:00:01.173Z,4.20
2019-05-05T01:02:27.304Z,4.20
2019-05-05T01:04:55.075Z,3.77
2019-05-05T01:07:21.379Z,3.40
2019-05-05T01:09:47.723Z,3.60
2019-05-05T01:12:14.977Z,3.80
2019-05-05T01:14:41.216Z,3.50
2019-05-05T01:17:07.324Z,3.80
2019-05-05T01:19:34.988Z,3.80
2019-05-05T01:22:01.421Z,3.80
2019-05-05T01:24:28.567Z,4.83
2019-05-05T01:26:55.169Z,4.30
2019-05-05T01:29:21.437Z,4.07
2019-05-05T01:31:47.463Z,4.70
2019-05-05T01:34:15.084Z,4.67
2019-05-05T01:36:42.569Z,3.77
2019-05-05T01:39:09.927Z,4.17
2019-05-05T01:41:36.048Z,3.73
2019-05-05T01:44:02.379Z,3.53
2019-05-05T01:46:28.401Z,3.70
2019-05-05T01:48:54.983Z,3.80
2019-05-05T01:51:21.163Z,3.93
2019-05-05T01:53:47.290Z,3.93
2019-05-05T01:56:15.363Z,3.87
2019-05-05T01:58:41.790Z,3.90
2019-05-05T02:01:07.817Z,4.10
2019-05-05T02:03:34.973Z,4.03
2019-05-05T02:06:01.498Z,3.90
2019-05-05T02:08:27.727Z,4.10
2019-05-05T02:10:54.807Z,4.23
2019-05-05T02:13:21.340Z,5.40
2019-05-05T02:15:47.332Z,6.27
2019-05-05T02:18:14.932Z,3.97
2019-05-05T02:20:45.052Z,3.67
2019-05-05T02:23:11.435Z,5.03
2019-05-05T02:25:37.665Z,4.00
2019-05-05T02:28:04.491Z,4.27
2019-05-05T02:30:30.840Z,3.50
2019-05-05T02:32:56.965Z,4.97
2019-05-05T02:35:25.533Z,4.30
2019-05-05T02:37:51.063Z,4.00
2019-05-05T02:40:18.104Z,3.40
2019-05-05T02:42:45.863Z,3.73
2019-05-05T02:45:25.054Z,4.03
2019-05-05T02:47:54.727Z,3.77
2019-05-05T02:50:21.241Z,3.53
2019-05-05T02:52:48.079Z,5.07
2019-05-05T02:55:15.328Z,4.73
2019-05-05T02:57:43.823Z,4.90
2019-05-05T03:00:10.243Z,4.77
2019-05-05T03:02:36.691Z,3.23
2019-05-05T03:05:04.314Z,4.20
2019-05-05T03:07:34.346Z,3.70
2019-05-05T03:10:00.793Z,5.77
2019-05-05T03:12:29.562Z,3.23
2019-05-05T03:14:57.230Z,4.90
2019-05-05T03:17:23.691Z,4.30
2019-05-05T03:19:50.814Z,4.00
2019-05-05T03:22:17.857Z,3.50
2019-05-05T03:24:45.008Z,4.27
2019-05-05T03:27:11.141Z,3.23
2019-05-05T03:29:38.691Z,4.20
2019-05-05T03:32:05.875Z,5.00
2019-05-05T03:34:34.323Z,3.00
2019-05-05T03:37:00.738Z,5.40
2019-05-05T03:39:27.185Z,3.57
2019-05-05T03:41:54.290Z,4.60
2019-05-05T03:44:20.765Z,3.40
2019-05-05T03:46:47.456Z,4.77
2019-05-05T03:49:14.249Z,6.17
2019-05-05T03:51:40.575Z,3.77
2019-05-05T03:54:06.801Z,5.17
2019-05-05T03:56:34.741Z,4.10
2019-05-05T03:59:01.346Z,3.70
2019-05-05T04:01:35.207Z,3.47
2019-05-05T04:04:03.341Z,5.00
2019-05-05T04:06:29.168Z,5.03
2019-05-05T04:08:55.428Z,5.03
2019-05-05T04:11:23.590Z,5.33
2019-05-05T04:13:49.724Z,5.00
2019-05-05T04:16:15.818Z,4.83
2019-05-05T04:18:43.557Z,4.00
2019-05-05T04:21:09.739Z,6.33
2019-05-05T04:23:35.862Z,4.47
2019-05-05T04:26:03.762Z,4.57
2019-05-05T04:28:29.902Z,4.27
2019-05-05T04:30:55.860Z,4.67
2019-05-05T04:33:23.653Z,5.93
2019-05-05T04:35:49.787Z,5.57
2019-05-05T04:38:15.785Z,4.57
2019-05-05T04:40:43.559Z,4.83
2019-05-05T04:43:09.674Z,4.47
2019-05-05T04:45:35.678Z,3.90
2019-05-05T04:48:04.201Z,4.43
2019-05-05T04:50:30.219Z,4.30
2019-05-05T04:52:56.330Z,5.57
2019-05-05T04:55:24.351Z,5.00
2019-05-05T04:57:50.418Z,3.90
2019-05-05T05:00:16.852Z,3.77
2019-05-05T05:02:43.620Z,3.00
2019-05-05T05:05:09.922Z,3.23
2019-05-05T05:07:35.944Z,2.50
2019-05-05T05:10:04.630Z,3.97
2019-05-05T05:12:30.648Z,2.43
2019-05-05T05:14:56.673Z,5.03
2019-05-05T05:17:24.720Z,4.63
2019-05-05T05:19:50.662Z,4.13
2019-05-05T05:22:16.684Z,2.67
2019-05-05T05:24:44.667Z,3.07
2019-05-05T05:27:10.984Z,3.67
2019-05-05T05:29:37.011Z,2.47
2019-05-05T05:32:04.222Z,2.90
2019-05-05T05:34:30.388Z,3.83
2019-05-05T05:36:56.505Z,2.97
2019-05-05T05:39:24.361Z,5.73
2019-05-05T05:41:50.494Z,3.83
2019-05-05T05:44:16.520Z,2.63
2019-05-05T05:46:43.869Z,3.03
2019-05-05T05:49:10.408Z,2.40
2019-05-05T05:51:36.634Z,3.30
2019-05-05T05:54:03.784Z,2.90
2019-05-05T05:56:29.912Z,4.47
2019-05-05T05:58:55.931Z,4.17
2019-05-05T06:01:23.928Z,3.73
2019-05-05T06:03:50.022Z,2.83
2019-05-05T06:06:16.044Z,4.13
2019-05-05T06:08:43.964Z,2.70
2019-05-05T06:11:10.036Z,3.87
2019-05-05T06:13:36.161Z,3.97
2019-05-05T06:16:04.263Z,4.37
2019-05-05T06:18:30.666Z,3.00
2019-05-05T06:20:56.789Z,3.40
2019-05-05T06:23:24.018Z,3.17
2019-05-05T06:25:51.499Z,2.80
2019-05-05T06:28:17.596Z,3.23
2019-05-05T06:30:44.272Z,3.07
2019-05-05T06:33:10.689Z,2.33
2019-05-05T06:35:37.955Z,3.23
2019-05-05T06:38:04.724Z,1.93
2019-05-05T06:40:31.123Z,3.30
2019-05-05T06:42:57.567Z,2.13
2019-05-05T06:45:23.968Z,2.97
2019-05-05T06:47:50.037Z,2.63
2019-05-05T06:50:16.226Z,2.30
2019-05-05T06:52:45.182Z,2.60
2019-05-05T06:55:10.320Z,1.67
2019-05-05T06:57:36.388Z,2.87
2019-05-05T07:00:04.412Z,2.20
2019-05-05T07:02:30.536Z,5.00
2019-05-05T07:04:56.661Z,2.53
2019-05-05T07:07:23.607Z,2.30
2019-05-05T07:09:49.787Z,2.37
2019-05-05T07:12:15.863Z,1.87
2019-05-05T07:14:41.879Z,4.07
2019-05-05T07:17:07.833Z,1.97
2019-05-05T07:19:34.471Z,2.80
2019-05-05T07:22:01.176Z,4.20
2019-05-05T07:24:27.173Z,2.40
2019-05-05T07:26:54.217Z,3.23
2019-05-05T07:29:20.526Z,2.80
2019-05-05T07:31:46.597Z,1.30
2019-05-05T07:34:13.689Z,2.23
2019-05-05T07:36:41.098Z,2.67
2019-05-05T07:39:07.327Z,2.97
2019-05-05T07:41:34.130Z,2.83
2019-05-05T07:44:00.708Z,2.43
2019-05-05T07:46:26.933Z,2.80
2019-05-05T07:48:54.475Z,2.00
2019-05-05T07:51:20.715Z,1.20
2019-05-05T07:53:46.839Z,2.87
2019-05-05T07:56:14.540Z,3.33
2019-05-05T07:58:40.834Z,2.53
2019-05-05T08:01:06.958Z,2.93
2019-05-05T08:03:33.864Z,1.73
2019-05-05T08:06:00.135Z,3.83
2019-05-05T08:08:26.151Z,3.37
2019-05-05T08:10:54.203Z,3.60
2019-05-05T08:13:20.556Z,3.27
2019-05-05T08:15:56.258Z,2.10
2019-05-05T08:18:14.848Z,4.77
2019-05-05T08:20:40.885Z,3.53
2019-05-05T08:23:08.326Z,4.20
2019-05-05T08:25:39.986Z,2.30
2019-05-05T08:28:04.343Z,3.10
2019-05-05T08:30:30.715Z,3.00
2019-05-05T08:32:56.718Z,2.70
2019-05-05T08:35:23.778Z,2.00
2019-05-05T08:37:50.093Z,2.50
2019-05-05T08:40:17.550Z,2.17
2019-05-05T08:42:44.824Z,6.07
2019-05-05T08:45:11.233Z,2.00
2019-05-05T08:47:39.692Z,2.33
2019-05-05T08:50:06.660Z,1.23
2019-05-05T08:52:34.297Z,2.57
2019-05-05T08:55:00.357Z,1.80
2019-05-05T08:57:26.468Z,3.70
2019-05-05T08:59:54.491Z,3.53
2019-05-05T09:02:20.560Z,2.23
2019-05-05T09:04:47.708Z,3.57
2019-05-05T09:07:13.916Z,1.03
2019-05-05T09:09:40.065Z,3.27
2019-05-05T09:12:06.406Z,1.93
2019-05-05T09:14:34.438Z,1.73
2019-05-05T09:17:00.588Z,2.57
2019-05-05T09:19:26.720Z,1.63
2019-05-05T09:21:54.148Z,1.87
2019-05-05T09:24:20.806Z,3.00
2019-05-05T09:26:47.238Z,2.33
2019-05-05T09:29:13.800Z,3.93
2019-05-05T09:31:39.998Z,1.87
2019-05-05T09:34:06.227Z,3.80
2019-05-05T09:36:34.758Z,1.90
2019-05-05T09:39:00.830Z,3.27
2019-05-05T09:41:26.958Z,1.80
2019-05-05T09:43:53.937Z,1.17
2019-05-05T09:46:20.127Z,1.63
2019-05-05T09:48:46.089Z,2.80
2019-05-05T09:51:13.620Z,1.33
2019-05-05T09:53:39.833Z,2.23
2019-05-05T09:56:06.177Z,1.77
2019-05-05T09:58:34.580Z,1.67
2019-05-05T10:01:00.564Z,2.23
2019-05-05T10:03:26.690Z,3.80
2019-05-05T10:05:54.079Z,2.03
2019-05-05T10:08:20.268Z,2.17
2019-05-05T10:10:46.501Z,2.50
2019-05-05T10:13:14.938Z,2.67
2019-05-05T10:15:41.102Z,1.63
2019-05-05T10:18:07.125Z,1.10
2019-05-05T10:20:34.363Z,2.73
2019-05-05T10:23:00.506Z,1.50
2019-05-05T10:25:26.525Z,1.70
2019-05-05T10:27:53.972Z,1.50
2019-05-05T10:30:20.310Z,2.23
2019-05-05T10:32:46.447Z,2.60
2019-05-05T10:35:14.327Z,2.33
2019-05-05T10:37:40.639Z,3.07
2019-05-05T10:40:06.881Z,2.70
2019-05-05T10:42:33.647Z,2.73
2019-05-05T10:44:59.930Z,3.40
2019-05-05T10:47:25.956Z,2.20
2019-05-05T10:49:54.372Z,2.90
2019-05-05T10:52:20.156Z,3.17
2019-05-05T10:54:46.267Z,2.80
2019-05-05T10:57:14.407Z,2.33
2019-05-05T10:59:43.416Z,2.53
2019-05-05T11:02:09.661Z,1.27
2019-05-05T11:04:35.810Z,4.40
2019-05-05T11:07:04.160Z,2.57
2019-05-05T11:09:30.327Z,2.07
2019-05-05T11:11:56.312Z,2.13
2019-05-05T11:14:22.437Z,5.73
2019-05-05T11:16:49.074Z,2.50
2019-05-05T11:19:15.511Z,1.40
2019-05-05T11:21:43.556Z,2.90
2019-05-05T11:24:09.804Z,3.20
2019-05-05T11:26:36.031Z,2.10
2019-05-05T11:29:04.128Z,2.53
2019-05-05T11:31:30.226Z,3.03
2019-05-05T11:33:56.251Z,3.23
2019-05-05T11:36:23.984Z,2.10
2019-05-05T11:38:50.137Z,2.23
2019-05-05T11:41:16.262Z,3.83
2019-05-05T11:43:42.386Z,2.43
2019-05-05T11:46:08.721Z,2.60
2019-05-05T11:48:34.740Z,4.97
2019-05-05T11:51:00.863Z,2.37
2019-05-05T11:53:26.890Z,1.17
2019-05-05T11:55:54.980Z,2.47
2019-05-05T11:58:22.006Z,2.23
2019-05-05T12:00:48.027Z,1.30
2019-05-05T12:03:14.530Z,3.23
2019-05-05T12:05:40.891Z,2.27
2019-05-05T12:08:07.021Z,2.03
2019-05-05T12:10:34.419Z,2.90
2019-05-05T12:13:00.904Z,2.93
2019-05-05T12:15:27.645Z,1.90
2019-05-05T12:17:54.541Z,8.20
2019-05-05T12:20:36.073Z,3.47
2019-05-05T12:23:04.705Z,2.83
2019-05-05T12:25:31.088Z,2.00
2019-05-05T12:27:57.217Z,2.73
2019-05-05T12:30:24.486Z,2.40
2019-05-05T12:32:50.590Z,2.23
2019-05-05T12:35:16.712Z,2.37
2019-05-05T12:37:44.538Z,2.33
2019-05-05T12:40:10.910Z,2.30
2019-05-05T12:42:37.240Z,2.50
2019-05-05T12:45:05.515Z,1.87
2019-05-05T12:47:34.245Z,2.70
2019-05-05T12:50:00.631Z,2.50
2019-05-05T12:52:27.988Z,1.93
2019-05-05T12:54:54.636Z,2.00
2019-05-05T12:57:20.954Z,2.20
2019-05-05T12:59:47.179Z,1.90
2019-05-05T13:02:14.264Z,2.40
2019-05-05T13:04:40.456Z,1.37
2019-05-05T13:07:08.291Z,2.93
2019-05-05T13:09:34.956Z,1.20
2019-05-05T13:12:01.493Z,3.10
2019-05-05T13:14:27.720Z,3.93
2019-05-05T13:16:56.009Z,1.67
2019-05-05T13:19:24.051Z,2.20
2019-05-05T13:21:50.314Z,2.93
2019-05-05T13:24:16.417Z,2.70
2019-05-05T13:26:43.566Z,2.00
2019-05-05T13:29:10.714Z,2.70
2019-05-05T13:31:36.942Z,3.27
2019-05-05T13:34:04.428Z,4.10
2019-05-05T13:36:30.841Z,2.30
2019-05-05T13:38:56.854Z,4.43
2019-05-05T13:41:23.081Z,3.97
2019-05-05T13:43:50.333Z,2.10
2019-05-05T13:46:16.456Z,3.97
2019-05-05T13:48:44.422Z,2.20
2019-05-05T13:51:14.637Z,3.97
2019-05-05T13:53:40.978Z,2.07
2019-05-05T13:56:11.929Z,1.77
2019-05-05T13:58:35.377Z,2.23
2019-05-05T14:01:03.760Z,1.93
2019-05-05T14:03:30.176Z,3.00
2019-05-05T14:05:57.444Z,2.33
2019-05-05T14:08:23.886Z,2.13
2019-05-05T14:10:50.201Z,2.20
2019-05-05T14:13:16.386Z,2.50
2019-05-05T14:15:44.076Z,3.17
2019-05-05T14:18:10.521Z,1.37
2019-05-05T14:20:36.751Z,1.80
2019-05-05T14:23:04.222Z,1.83
2019-05-05T14:25:30.227Z,2.63
2019-05-05T14:27:56.454Z,1.83
2019-05-05T14:30:23.649Z,2.70
2019-05-05T14:32:49.889Z,2.13
2019-05-05T14:35:22.103Z,1.63
2019-05-05T14:37:55.399Z,2.03
2019-05-05T14:40:21.516Z,2.03
2019-05-05T14:42:47.642Z,2.40
2019-05-05T14:45:15.376Z,3.80
2019-05-05T14:47:44.008Z,1.73
2019-05-05T14:50:10.532Z,1.77
2019-05-05T14:52:36.752Z,1.70
2019-05-05T14:55:04.926Z,1.43
2019-05-05T14:57:31.255Z,2.17
2019-05-05T14:59:57.381Z,2.13
2019-05-05T15:02:24.532Z,1.70
2019-05-05T15:04:50.758Z,1.83
2019-05-05T15:07:16.881Z,1.77
2019-05-05T15:09:44.132Z,1.57
2019-05-05T15:12:11.178Z,3.10
2019-05-05T15:14:37.200Z,1.87
2019-05-05T15:17:03.732Z,1.73
2019-05-05T15:19:33.971Z,2.27
2019-05-05T15:22:00.186Z,2.60
2019-05-05T15:24:26.201Z,1.60
2019-05-05T15:26:54.969Z,1.13
2019-05-05T15:29:22.160Z,1.53
2019-05-05T15:31:48.126Z,2.50
2019-05-05T15:34:14.186Z,2.97
2019-05-05T15:36:41.441Z,1.20
2019-05-05T15:39:08.138Z,1.67
2019-05-05T15:41:34.306Z,1.70
2019-05-05T15:44:03.749Z,3.67
2019-05-05T15:46:30.341Z,3.83
2019-05-05T15:48:56.369Z,2.93
2019-05-05T15:51:23.685Z,1.57
2019-05-05T15:53:50.051Z,2.53
2019-05-05T15:56:16.073Z,1.17
2019-05-05T15:58:43.506Z,1.93
2019-05-05T16:01:09.898Z,1.90
2019-05-05T16:03:36.190Z,3.53
2019-05-05T16:06:03.775Z,2.33
2019-05-05T16:08:29.970Z,2.63
2019-05-05T16:10:56.099Z,2.67
2019-05-05T16:13:22.222Z,2.40
2019-05-05T16:15:48.449Z,3.20
2019-05-05T16:18:14.678Z,3.33
2019-05-05T16:20:40.808Z,1.93
2019-05-05T16:23:06.984Z,2.20
2019-05-05T16:25:33.055Z,2.53
2019-05-05T16:27:59.386Z,1.90
2019-05-05T16:30:25.814Z,2.67
2019-05-05T16:32:54.979Z,3.17
2019-05-05T16:35:20.116Z,1.73
2019-05-05T16:37:46.386Z,3.07
2019-05-05T16:40:14.412Z,1.57
2019-05-05T16:42:41.150Z,2.40
2019-05-05T16:45:07.891Z,2.20
2019-05-05T16:47:34.627Z,1.67
2019-05-05T16:50:00.752Z,1.50
2019-05-05T16:52:26.744Z,1.60
2019-05-05T16:54:53.342Z,3.27
2019-05-05T16:57:33.191Z,3.10
2019-05-05T16:59:48.838Z,3.63
2019-05-05T17:02:15.065Z,2.37
2019-05-05T17:04:43.251Z,3.20
2019-05-05T17:07:09.371Z,2.73
2019-05-05T17:09:35.487Z,3.87
2019-05-05T17:12:03.342Z,3.03
2019-05-05T17:14:29.487Z,2.47
2019-05-05T17:16:55.706Z,2.40
2019-05-05T17:19:21.967Z,3.57
2019-05-05T17:21:48.230Z,2.97
2019-05-05T17:24:14.552Z,2.77
2019-05-05T17:26:40.826Z,1.83
2019-05-05T17:29:07.052Z,2.40
2019-05-05T17:31:33.995Z,2.33
2019-05-05T17:34:00.322Z,1.53
2019-05-05T17:36:27.573Z,1.83
2019-05-05T17:38:54.415Z,2.07
2019-05-05T17:41:20.541Z,8.43
2019-05-05T17:43:46.569Z,5.37
2019-05-05T17:46:13.490Z,4.97
2019-05-05T17:48:39.632Z,20.20
2019-05-05T17:51:05.755Z,13.93
2019-05-05T17:53:31.903Z,13.70
2019-05-05T17:55:58.010Z,8.03
2019-05-05T17:58:24.728Z,5.77
2019-05-05T18:00:54.213Z,2.73
2019-05-05T18:03:20.169Z,4.17
2019-05-05T18:05:46.366Z,2.07
2019-05-05T18:08:13.829Z,1.97
2019-05-05T18:10:39.968Z,2.50
2019-05-05T18:13:06.006Z,2.30
2019-05-05T18:15:34.001Z,3.40
2019-05-05T18:18:00.094Z,2.23
2019-05-05T18:20:27.143Z,2.80
2019-05-05T18:22:53.613Z,3.90
2019-05-05T18:25:20.028Z,2.67
2019-05-05T18:27:46.134Z,2.67
2019-05-05T18:30:13.079Z,2.83
2019-05-05T18:32:39.409Z,3.80
2019-05-05T18:35:06.758Z,1.87
2019-05-05T18:37:33.967Z,3.53
2019-05-05T18:40:00.174Z,2.77
2019-05-05T18:42:26.157Z,2.03
2019-05-05T18:44:54.022Z,1.83
2019-05-05T18:47:20.274Z,1.77
2019-05-05T18:49:46.685Z,3.63
2019-05-05T18:52:13.855Z,4.53
2019-05-05T18:54:40.569Z,2.43
2019-05-05T18:57:08.031Z,3.77
2019-05-05T18:59:34.357Z,1.73
2019-05-05T19:02:00.860Z,3.57
2019-05-05T19:04:27.225Z,3.23
2019-05-05T19:06:54.568Z,3.17
2019-05-05T19:09:20.700Z,3.03
2019-05-05T19:11:46.818Z,3.73
2019-05-05T19:14:14.315Z,3.40
2019-05-05T19:16:40.611Z,4.60
2019-05-05T19:19:06.777Z,2.40
2019-05-05T19:21:34.014Z,3.70
2019-05-05T19:24:00.932Z,2.37
2019-05-05T19:26:27.058Z,3.67
2019-05-05T19:28:54.740Z,3.97
2019-05-05T19:31:21.009Z,2.37
2019-05-05T19:33:47.174Z,2.67
2019-05-05T19:36:13.400Z,3.77
2019-05-05T19:38:39.525Z,3.20
2019-05-05T19:41:06.879Z,2.93
2019-05-05T19:43:34.017Z,2.90
2019-05-05T19:46:01.176Z,4.30
2019-05-05T19:48:27.423Z,4.50
2019-05-05T19:50:54.191Z,3.50
2019-05-05T19:53:20.678Z,4.07
2019-05-05T19:55:46.802Z,5.40
2019-05-05T19:58:14.045Z,6.40
2019-05-05T20:00:40.080Z,6.53
2019-05-05T20:03:06.341Z,3.67
2019-05-05T20:05:34.106Z,3.90
2019-05-05T20:08:00.310Z,5.43
2019-05-05T20:10:26.310Z,3.87
2019-05-05T20:12:54.014Z,4.87
2019-05-05T20:15:20.192Z,4.87
2019-05-05T20:17:46.174Z,3.90
2019-05-05T20:20:13.851Z,4.17
2019-05-05T20:22:39.927Z,3.37
2019-05-05T20:25:06.319Z,2.70
2019-05-05T20:27:34.229Z,4.27
2019-05-05T20:30:00.206Z,5.17
2019-05-05T20:32:26.763Z,4.17
2019-05-05T20:34:54.163Z,4.03
2019-05-05T20:37:23.455Z,4.80
2019-05-05T20:39:49.305Z,3.97
2019-05-05T20:42:15.394Z,7.10
2019-05-05T20:44:43.581Z,4.33
2019-05-05T20:47:09.691Z,4.07
2019-05-05T20:49:35.803Z,4.57
2019-05-05T20:52:03.728Z,3.97
2019-05-05T20:54:31.020Z,4.07
2019-05-05T20:57:00.580Z,6.13
2019-05-05T21:02:25.971Z,3.80
2019-05-05T21:04:54.091Z,5.47
2019-05-05T21:07:23.520Z,4.33
2019-05-05T21:09:49.665Z,5.67
2019-05-05T21:12:15.747Z,5.20
2019-05-05T21:14:44.458Z,5.27
2019-05-05T21:17:09.757Z,5.30
2019-05-05T21:19:35.892Z,5.53
2019-05-05T21:22:04.080Z,4.97
2019-05-05T21:24:29.992Z,8.87
2019-05-05T21:26:55.979Z,9.93
2019-05-05T21:29:23.727Z,9.80
2019-05-05T21:31:49.800Z,11.00
2019-05-05T21:34:15.793Z,8.10
2019-05-05T21:36:41.951Z,8.27
2019-05-05T21:39:08.347Z,8.03
2019-05-05T21:41:34.695Z,7.73
2019-05-05T21:44:00.939Z,7.40
2019-05-05T21:46:26.890Z,6.97
2019-05-05T21:48:54.366Z,5.20
2019-05-05T21:51:20.556Z,8.13
2019-05-05T21:53:46.558Z,7.20
2019-05-05T21:56:13.866Z,6.17
2019-05-05T21:58:39.923Z,7.03
2019-05-05T22:01:07.556Z,6.47
2019-05-05T22:03:34.866Z,7.30
2019-05-05T22:06:01.252Z,7.00
2019-05-05T22:08:27.240Z,8.30
2019-05-05T22:10:54.328Z,13.93
2019-05-05T22:13:20.561Z,12.20
2019-05-05T22:15:46.613Z,9.00
2019-05-05T22:18:14.469Z,8.40
2019-05-05T22:20:40.940Z,8.13
2019-05-05T22:23:07.025Z,6.70
2019-05-05T22:25:34.163Z,5.20
2019-05-05T22:28:00.384Z,7.27
2019-05-05T22:30:26.392Z,7.40
2019-05-05T22:32:52.389Z,4.97
2019-05-05T22:35:19.138Z,5.57
2019-05-05T22:37:45.576Z,8.03
2019-05-05T22:40:16.042Z,5.97
2019-05-05T22:42:43.719Z,5.07
2019-05-05T22:45:09.945Z,5.53
2019-05-05T22:47:35.896Z,5.07
2019-05-05T22:50:04.492Z,5.33
2019-05-05T22:52:30.727Z,5.07
2019-05-05T22:54:56.729Z,6.00
2019-05-05T22:57:24.619Z,6.40
2019-05-05T22:59:50.572Z,5.33
2019-05-05T23:02:16.969Z,7.57
2019-05-05T23:04:43.867Z,7.87
2019-05-05T23:07:09.934Z,7.03
2019-05-05T23:09:35.928Z,6.60
2019-05-05T23:12:04.070Z,7.27
2019-05-05T23:14:29.784Z,6.80
2019-05-05T23:16:58.095Z,6.47
2019-05-05T23:19:25.734Z,5.37
2019-05-05T23:21:51.842Z,6.53
2019-05-05T23:24:18.040Z,7.40
2019-05-05T23:26:43.999Z,5.80
2019-05-05T23:29:10.295Z,6.83
2019-05-05T23:31:36.276Z,7.00
2019-05-05T23:34:04.009Z,5.03
2019-05-05T23:36:30.298Z,5.57
2019-05-05T23:38:57.302Z,6.27
2019-05-05T23:41:23.919Z,5.83
2019-05-05T23:43:51.160Z,5.07
2019-05-05T23:46:17.318Z,8.87
2019-05-05T23:48:43.425Z,5.97
2019-05-05T23:51:09.376Z,7.77
2019-05-05T23:53:35.489Z,6.73
2019-05-05T23:56:01.431Z,8.27
2019-05-05T23:58:27.438Z,6.93
